createdAt,value
2022-12-20T00:02:55.926Z,28.50
2022-12-20T00:06:23.952Z,31.10
2022-12-20T00:09:50.497Z,31.10
2022-12-20T00:13:17.202Z,32.10
2022-12-20T00:16:43.996Z,32.00
2022-12-20T00:20:12.841Z,30.00
2022-12-20T00:23:40.305Z,28.80
2022-12-20T00:27:06.850Z,29.30
2022-12-20T00:30:33.525Z,30.60
2022-12-20T00:34:01.814Z,31.60
2022-12-20T00:37:29.280Z,30.80
2022-12-20T00:41:04.106Z,31.30
2022-12-20T00:44:30.807Z,30.50
2022-12-20T00:47:57.621Z,31.00
2022-12-20T00:51:27.527Z,31.30
2022-12-20T00:54:54.423Z,29.20
2022-12-20T00:58:21.762Z,31.70
2022-12-20T01:01:50.442Z,29.90
2022-12-20T01:05:20.082Z,32.50
2022-12-20T01:08:47.220Z,32.20
2022-12-20T01:12:13.735Z,30.10
2022-12-20T01:15:40.295Z,29.40
2022-12-20T01:19:08.242Z,30.70
2022-12-20T01:22:34.831Z,29.50
2022-12-20T01:26:02.806Z,29.20
2022-12-20T01:29:29.331Z,28.20
2022-12-20T01:32:56.371Z,32.50
2022-12-20T01:36:26.202Z,29.00
2022-12-20T01:39:53.116Z,32.10
2022-12-20T01:43:21.221Z,29.20
2022-12-20T01:46:49.723Z,30.70
2022-12-20T01:50:16.239Z,29.40
2022-12-20T01:53:43.010Z,29.50
2022-12-20T01:57:13.690Z,29.90
2022-12-20T02:00:40.702Z,29.50
2022-12-20T02:04:07.382Z,29.20
2022-12-20T02:07:36.213Z,30.30
2022-12-20T02:11:12.032Z,29.50
2022-12-20T02:15:00.609Z,28.60
2022-12-20T02:18:32.557Z,29.50
2022-12-20T02:22:15.236Z,29.60
2022-12-20T02:26:02.926Z,28.00
2022-12-20T02:29:37.801Z,28.60
2022-12-20T02:33:08.456Z,28.20
2022-12-20T02:36:35.329Z,27.50
2022-12-20T02:40:02.713Z,28.30
2022-12-20T02:43:49.751Z,27.90
2022-12-20T02:47:21.396Z,27.20
2022-12-20T02:50:54.058Z,29.00
2022-12-20T02:54:21.270Z,27.50
2022-12-20T02:58:00.316Z,28.10
2022-12-20T03:04:56.831Z,27.30
2022-12-20T03:08:24.471Z,27.30
2022-12-20T03:11:51.741Z,27.10
2022-12-20T03:15:18.749Z,27.90
2022-12-20T03:18:48.140Z,27.00
2022-12-20T03:22:15.445Z,25.70
2022-12-20T03:25:42.161Z,26.30
2022-12-20T03:29:11.022Z,26.80
2022-12-20T03:32:38.169Z,26.60
2022-12-20T03:36:05.953Z,26.50
2022-12-20T03:39:32.871Z,24.90
2022-12-20T03:43:00.124Z,26.90
2022-12-20T03:46:26.857Z,26.20
2022-12-20T03:49:54.297Z,23.50
2022-12-20T03:53:21.411Z,25.60
2022-12-20T03:56:48.697Z,27.20
2022-12-20T04:00:18.101Z,26.50
2022-12-20T04:03:46.239Z,24.90
2022-12-20T04:07:13.244Z,26.80
2022-12-20T04:10:56.115Z,26.10
2022-12-20T04:14:24.237Z,26.70
2022-12-20T04:17:51.441Z,25.20
2022-12-20T04:21:24.784Z,26.50
2022-12-20T04:24:53.809Z,24.30
2022-12-20T04:28:31.650Z,25.90
2022-12-20T04:31:58.673Z,24.10
2022-12-20T04:35:25.362Z,24.70
2022-12-20T04:38:52.798Z,26.50
2022-12-20T04:42:20.208Z,25.50
2022-12-20T04:45:48.353Z,24.60
2022-12-20T04:49:16.620Z,25.30
2022-12-20T04:53:01.103Z,25.30
2022-12-20T04:56:30.043Z,25.50
2022-12-20T05:00:01.886Z,25.40
2022-12-20T05:03:29.615Z,24.60
2022-12-20T05:06:56.813Z,23.80
2022-12-20T05:10:24.124Z,26.00
2022-12-20T05:13:50.971Z,24.40
2022-12-20T05:17:19.229Z,25.30
2022-12-20T05:20:46.240Z,26.60
2022-12-20T05:24:31.100Z,27.30
2022-12-20T05:31:38.571Z,24.30
2022-12-20T05:35:06.251Z,24.20
2022-12-20T05:38:34.186Z,23.30
2022-12-20T05:42:01.978Z,23.20
2022-12-20T05:45:28.715Z,22.50
2022-12-20T05:49:00.894Z,22.90
2022-12-20T05:52:28.195Z,23.50
2022-12-20T05:55:56.196Z,24.60
2022-12-20T05:59:27.130Z,23.30
2022-12-20T06:02:54.487Z,24.20
2022-12-20T06:06:21.533Z,23.70
2022-12-20T06:09:48.375Z,23.50
2022-12-20T06:13:17.639Z,23.60
2022-12-20T06:16:44.278Z,23.10
2022-12-20T06:20:13.278Z,25.60
2022-12-20T06:23:42.450Z,24.80
2022-12-20T06:30:38.366Z,25.00
2022-12-20T06:34:13.999Z,25.00
2022-12-20T06:37:41.988Z,24.80
2022-12-20T06:41:08.885Z,25.70
2022-12-20T06:44:36.103Z,25.60
2022-12-20T06:48:02.857Z,25.40
2022-12-20T06:51:31.027Z,25.70
2022-12-20T06:54:58.777Z,24.00
2022-12-20T06:58:26.058Z,24.60
2022-12-20T07:01:52.850Z,24.40
2022-12-20T07:05:19.622Z,26.80
2022-12-20T07:08:46.365Z,25.70
2022-12-20T07:12:13.141Z,24.40
2022-12-20T07:15:40.156Z,25.60
2022-12-20T07:19:06.752Z,25.50
2022-12-20T07:22:34.629Z,26.70
2022-12-20T07:26:04.133Z,24.80
2022-12-20T07:29:31.098Z,25.50
2022-12-20T07:32:57.784Z,23.60
2022-12-20T07:36:24.612Z,25.80
2022-12-20T07:39:51.511Z,25.10
2022-12-20T07:43:18.097Z,25.80
2022-12-20T07:46:44.730Z,27.40
2022-12-20T07:50:13.604Z,25.80
2022-12-20T07:53:46.191Z,25.60
2022-12-20T07:57:17.959Z,24.50
2022-12-20T08:00:45.520Z,27.10
2022-12-20T08:04:16.854Z,24.20
2022-12-20T08:07:44.529Z,24.40
2022-12-20T08:11:12.287Z,25.30
2022-12-20T08:14:39.061Z,26.90
2022-12-20T08:18:06.770Z,24.20
2022-12-20T08:21:33.999Z,24.40
2022-12-20T08:25:00.811Z,23.30
2022-12-20T08:28:27.718Z,26.30
2022-12-20T08:31:54.563Z,26.00
2022-12-20T08:35:21.292Z,25.30
2022-12-20T08:38:48.107Z,26.10
2022-12-20T08:42:14.943Z,25.00
2022-12-20T08:45:41.516Z,23.30
2022-12-20T08:49:08.435Z,25.00
2022-12-20T08:52:34.980Z,26.50
2022-12-20T08:56:08.822Z,27.00
2022-12-20T08:59:35.579Z,26.30
2022-12-20T09:03:02.398Z,27.10
2022-12-20T09:06:29.680Z,26.40
2022-12-20T09:09:56.234Z,26.80
2022-12-20T09:13:23.005Z,25.10
2022-12-20T09:16:51.332Z,27.50
2022-12-20T09:20:18.342Z,27.80
2022-12-20T09:23:45.288Z,26.90
2022-12-20T09:27:12.146Z,25.90
2022-12-20T09:30:39.008Z,28.50
2022-12-20T09:34:06.140Z,26.40
2022-12-20T09:37:34.460Z,27.50
2022-12-20T09:41:04.237Z,26.50
2022-12-20T09:44:35.599Z,27.50
2022-12-20T09:48:02.665Z,26.60
2022-12-20T09:51:49.913Z,26.60
2022-12-20T09:55:25.811Z,29.20
2022-12-20T09:59:01.962Z,27.90
2022-12-20T10:06:27.306Z,30.60
2022-12-20T10:10:11.667Z,28.80
2022-12-20T10:14:01.349Z,29.60
2022-12-20T10:21:09.093Z,28.80
2022-12-20T10:24:37.247Z,30.50
2022-12-20T10:28:12.266Z,30.30
2022-12-20T10:31:40.236Z,29.00
2022-12-20T10:35:23.156Z,30.70
2022-12-20T10:38:51.647Z,29.30
2022-12-20T10:42:36.055Z,28.10
2022-12-20T10:46:05.824Z,30.10
2022-12-20T10:53:25.537Z,29.20
2022-12-20T10:56:58.943Z,29.60
2022-12-20T11:00:33.701Z,26.40
2022-12-20T11:04:03.713Z,30.00
2022-12-20T11:07:32.977Z,29.30
2022-12-20T11:11:16.393Z,29.30
2022-12-20T11:14:45.159Z,28.10
2022-12-20T11:18:20.425Z,29.70
2022-12-20T11:21:55.998Z,28.50
2022-12-20T11:25:37.878Z,31.10
2022-12-20T11:29:21.717Z,30.10
2022-12-20T11:33:12.183Z,28.80
2022-12-20T11:36:55.663Z,27.00
2022-12-20T11:40:33.896Z,29.80
2022-12-20T11:44:25.222Z,31.10
2022-12-20T11:48:06.921Z,31.20
2022-12-20T11:51:46.558Z,29.80
2022-12-20T11:58:57.596Z,32.60
2022-12-20T12:02:31.215Z,31.50
2022-12-20T12:06:02.220Z,33.20
2022-12-20T12:09:34.837Z,32.40
2022-12-20T12:13:09.355Z,31.30
2022-12-20T12:16:40.393Z,30.00
2022-12-20T12:20:23.400Z,31.00
2022-12-20T12:24:02.831Z,31.40
2022-12-20T12:27:30.967Z,31.90
2022-12-20T12:31:04.791Z,32.10
2022-12-20T12:34:47.902Z,30.00
2022-12-20T12:38:40.549Z,31.50
2022-12-20T12:42:25.210Z,32.00
2022-12-20T12:45:57.470Z,30.60
2022-12-20T12:49:28.734Z,33.00
2022-12-20T12:52:58.425Z,34.60
2022-12-20T12:56:49.131Z,33.40
2022-12-20T13:00:53.958Z,31.80
2022-12-20T13:04:30.171Z,31.40
2022-12-20T13:07:57.060Z,30.50
2022-12-20T13:11:34.453Z,28.90
2022-12-20T13:15:01.613Z,29.10
2022-12-20T13:18:31.850Z,31.80
2022-12-20T13:22:14.986Z,31.90
2022-12-20T13:25:44.655Z,32.10
2022-12-20T13:33:23.619Z,30.20
2022-12-20T13:37:00.425Z,31.10
2022-12-20T13:40:36.767Z,31.30
2022-12-20T13:44:18.140Z,29.40
2022-12-20T13:47:50.776Z,30.40
2022-12-20T13:51:21.880Z,31.80
2022-12-20T13:54:52.394Z,31.90
2022-12-20T13:58:23.895Z,31.60
2022-12-20T14:01:54.086Z,32.00
2022-12-20T14:05:26.635Z,30.60
2022-12-20T14:08:55.224Z,31.50
2022-12-20T14:12:28.541Z,32.10
2022-12-20T14:15:57.491Z,30.20
2022-12-20T14:19:24.491Z,32.90
2022-12-20T14:23:04.637Z,32.70
2022-12-20T14:26:37.637Z,31.50
2022-12-20T14:30:05.027Z,33.00
2022-12-20T14:33:37.551Z,33.60
2022-12-20T14:37:29.129Z,36.00
2022-12-20T14:40:56.427Z,35.70
2022-12-20T14:44:27.265Z,32.40
2022-12-20T14:48:07.465Z,33.20
2022-12-20T14:51:35.181Z,35.20
2022-12-20T14:55:09.978Z,36.30
2022-12-20T14:58:37.687Z,33.90
2022-12-20T15:02:34.517Z,34.60
2022-12-20T15:06:02.298Z,33.90
2022-12-20T15:09:29.267Z,33.60
2022-12-20T15:12:56.182Z,31.90
2022-12-20T15:16:24.984Z,32.90
2022-12-20T15:19:52.228Z,31.90
2022-12-20T15:23:21.354Z,36.00
2022-12-20T15:26:49.171Z,35.90
2022-12-20T15:30:17.227Z,34.60
2022-12-20T15:33:45.770Z,34.20
2022-12-20T15:37:18.699Z,34.30
2022-12-20T15:40:47.781Z,33.60
2022-12-20T15:44:18.718Z,34.80
2022-12-20T15:47:45.792Z,36.20
2022-12-20T15:51:29.022Z,35.20
2022-12-20T15:54:55.939Z,34.50
2022-12-20T15:58:23.660Z,37.50
2022-12-20T16:01:50.640Z,39.00
2022-12-20T16:05:17.825Z,41.10
2022-12-20T16:08:44.921Z,36.90
2022-12-20T16:12:17.736Z,39.80
2022-12-20T16:15:45.048Z,38.10
2022-12-20T16:19:12.716Z,38.50
2022-12-20T16:22:40.377Z,38.60
2022-12-20T16:26:08.996Z,36.50
2022-12-20T16:29:35.948Z,37.50
2022-12-20T16:33:02.878Z,35.60
2022-12-20T16:36:30.321Z,35.00
2022-12-20T16:39:58.017Z,37.50
2022-12-20T16:43:25.776Z,37.20
2022-12-20T16:46:52.657Z,37.10
2022-12-20T16:50:20.573Z,37.30
2022-12-20T16:54:17.497Z,35.20
2022-12-20T16:57:34.856Z,35.10
2022-12-20T17:01:01.806Z,34.30
2022-12-20T17:04:28.971Z,37.10
2022-12-20T17:07:56.346Z,37.00
2022-12-20T17:11:25.567Z,35.40
2022-12-20T17:14:52.789Z,35.40
2022-12-20T17:18:19.605Z,34.80
2022-12-20T17:25:37.026Z,34.90
2022-12-20T17:29:05.109Z,34.30
2022-12-20T17:32:32.050Z,35.40
2022-12-20T17:35:59.204Z,35.40
2022-12-20T17:39:27.115Z,36.20
2022-12-20T17:42:54.462Z,36.40
2022-12-20T17:46:22.013Z,34.40
2022-12-20T17:49:48.934Z,35.90
2022-12-20T17:53:15.850Z,36.20
2022-12-20T17:56:43.129Z,36.60
2022-12-20T18:00:20.033Z,35.90
2022-12-20T18:04:03.737Z,37.30
2022-12-20T18:07:31.647Z,33.50
2022-12-20T18:11:00.419Z,33.90
2022-12-20T18:14:27.259Z,33.40
2022-12-20T18:17:54.164Z,36.00
2022-12-20T18:21:22.670Z,33.50
2022-12-20T18:24:49.573Z,34.10
2022-12-20T18:28:16.453Z,34.90
2022-12-20T18:31:43.407Z,33.10
2022-12-20T18:35:12.494Z,33.00
2022-12-20T18:38:41.522Z,32.40
2022-12-20T18:42:08.739Z,34.80
2022-12-20T18:45:36.915Z,33.60
2022-12-20T18:49:04.707Z,33.40
2022-12-20T18:52:32.288Z,32.30
2022-12-20T18:56:01.912Z,32.00
2022-12-20T18:59:30.595Z,32.70
2022-12-20T19:02:59.624Z,33.60
2022-12-20T19:06:27.243Z,31.70
2022-12-20T19:09:54.247Z,33.80
2022-12-20T19:13:21.782Z,31.60
2022-12-20T19:16:50.218Z,33.40
2022-12-20T19:20:17.314Z,31.10
2022-12-20T19:23:46.154Z,31.20
2022-12-20T19:27:12.971Z,31.70
2022-12-20T19:30:39.936Z,31.00
2022-12-20T19:34:09.736Z,31.10
2022-12-20T19:37:37.617Z,32.80
2022-12-20T19:41:04.842Z,33.00
2022-12-20T19:44:31.684Z,32.40
2022-12-20T19:47:58.662Z,30.50
2022-12-20T19:51:26.299Z,33.60
2022-12-20T19:54:53.232Z,31.40
2022-12-20T19:58:20.293Z,34.10
2022-12-20T20:01:47.435Z,32.30
2022-12-20T20:05:15.413Z,33.20
2022-12-20T20:08:43.090Z,33.90
2022-12-20T20:12:10.326Z,32.10
2022-12-20T20:15:37.532Z,33.20
2022-12-20T20:19:05.614Z,34.20
2022-12-20T20:22:32.684Z,33.50
2022-12-20T20:26:00.121Z,35.70
2022-12-20T20:29:27.119Z,32.20
2022-12-20T20:32:54.117Z,34.40
2022-12-20T20:36:23.339Z,28.30
2022-12-20T20:39:50.309Z,33.60
2022-12-20T20:43:17.372Z,31.30
2022-12-20T20:46:46.475Z,33.00
2022-12-20T20:50:14.205Z,33.20
2022-12-20T20:53:41.806Z,33.70
2022-12-20T20:57:08.694Z,34.00
2022-12-20T21:00:36.182Z,30.90
2022-12-20T21:04:03.367Z,31.80
2022-12-20T21:07:30.534Z,32.80
2022-12-20T21:10:57.533Z,33.90
2022-12-20T21:14:43.785Z,34.00
2022-12-20T21:18:11.535Z,34.70
2022-12-20T21:21:38.559Z,32.80
2022-12-20T21:25:06.839Z,34.10
2022-12-20T21:28:33.925Z,35.90
2022-12-20T21:32:00.872Z,36.00
2022-12-20T21:35:28.681Z,35.00
2022-12-20T21:38:57.236Z,34.10
2022-12-20T21:42:24.423Z,39.30
2022-12-20T21:45:53.736Z,35.10
2022-12-20T21:49:20.701Z,37.60
2022-12-20T21:52:47.808Z,34.80
2022-12-20T21:56:15.623Z,35.00
2022-12-20T21:59:42.584Z,33.50
2022-12-20T22:03:09.580Z,32.10
2022-12-20T22:06:36.819Z,31.50
2022-12-20T22:10:03.758Z,30.40
2022-12-20T22:13:35.723Z,30.50
2022-12-20T22:17:07.444Z,29.30
2022-12-20T22:20:35.161Z,29.70
2022-12-20T22:24:03.669Z,28.10
2022-12-20T22:27:30.578Z,29.20
2022-12-20T22:30:57.667Z,30.20
2022-12-20T22:34:25.518Z,28.40
2022-12-20T22:37:52.978Z,30.20
2022-12-20T22:41:22.561Z,31.30
2022-12-20T22:44:49.442Z,28.70
2022-12-20T22:48:16.294Z,28.30
2022-12-20T22:51:43.296Z,27.20
2022-12-20T22:55:11.467Z,30.10
2022-12-20T22:58:39.503Z,29.50
2022-12-20T23:02:06.685Z,29.30
2022-12-20T23:05:33.888Z,29.80
2022-12-20T23:09:00.921Z,30.70
2022-12-20T23:12:45.572Z,29.10
2022-12-20T23:16:14.204Z,29.30
2022-12-20T23:19:58.686Z,28.50
2022-12-20T23:23:26.086Z,28.00
2022-12-20T23:26:53.008Z,27.90
2022-12-20T23:30:22.717Z,28.20
2022-12-20T23:33:49.794Z,28.00
2022-12-20T23:37:16.753Z,28.30
2022-12-20T23:40:44.693Z,29.20
2022-12-20T23:44:11.667Z,29.20
2022-12-20T23:47:38.566Z,28.60
2022-12-20T23:51:07.195Z,29.10
2022-12-20T23:54:34.319Z,29.50
2022-12-20T23:58:01.508Z,29.70
